Orbital elements of COSMOS 970 DEB
| Launched | 20 December 1977 |
| Flight ended | – |
| Launch site | Tyuratam Missile and Space Center, Kazakhstan (Also known as Baikonur Cosmodrome) |
| Owner | Commonwealth of Independent States (former USSR) |
| NORAD ID | 64969 |
| Date fetched |
Epoch osculation |
Inc. [°] |
Ecc. | RA asc node [hr] |
Arg Peri. [°] |
Mean anom [°] |
Mean motion [rev/day] |
Abs. mag |
| Date fetched |
Epoch osculation |
Inc. [°] |
Ecc. | RA asc node [hr] |
Arg Peri. [°] |
Mean anom [°] |
Mean motion [rev/day] |
Abs. mag |
| 2026 May 03 17:57 | 2026 Apr 30 12:20:37 | 65.7948 | 0.01047 | 3.8228 | 235.2416 | 123.8765 | 13.84103 | – |
| 2026 May 02 17:57 | 2026 Apr 30 12:20:37 | 65.7948 | 0.01047 | 3.8228 | 235.2416 | 123.8765 | 13.84103 | – |
| 2026 May 01 17:56 | 2026 Apr 30 12:20:37 | 65.7948 | 0.01047 | 3.8228 | 235.2416 | 123.8765 | 13.84103 | – |
| 2026 Apr 30 17:56 | 2026 Apr 30 12:20:37 | 65.7948 | 0.01047 | 3.8228 | 235.2416 | 123.8765 | 13.84103 | – |
| 2026 Apr 29 17:57 | 2026 Apr 23 03:27:35 | 65.7934 | 0.01054 | 5.0576 | 238.7048 | 123.8765 | 13.84103 | – |
| 2026 Apr 28 17:56 | 2026 Apr 23 03:27:35 | 65.7934 | 0.01054 | 5.0576 | 238.7048 | 123.8765 | 13.84103 | – |
| 2026 Apr 27 17:58 | 2026 Apr 23 03:27:35 | 65.7934 | 0.01054 | 5.0576 | 238.7048 | 123.8765 | 13.84103 | – |
| 2026 Apr 26 17:58 | 2026 Apr 23 03:27:35 | 65.7934 | 0.01054 | 5.0576 | 238.7048 | 123.8765 | 13.84103 | – |
| 2026 Apr 25 17:58 | 2026 Apr 23 03:27:35 | 65.7934 | 0.01054 | 5.0576 | 238.7048 | 123.8765 | 13.84103 | – |
| 2026 Apr 24 17:59 | 2026 Apr 23 03:27:35 | 65.7934 | 0.01054 | 5.0576 | 238.7048 | 123.8765 | 13.84103 | – |
| 2026 Apr 23 17:57 | 2026 Apr 18 15:56:29 | 65.7930 | 0.01058 | 5.8082 | 240.7664 | 123.8765 | 13.84103 | – |
| 2026 Apr 22 17:57 | 2026 Apr 18 15:56:29 | 65.7930 | 0.01058 | 5.8082 | 240.7664 | 123.8765 | 13.84103 | – |
| 2026 Apr 21 17:57 | 2026 Apr 18 15:56:29 | 65.7930 | 0.01058 | 5.8082 | 240.7664 | 123.8765 | 13.84103 | – |
| 2026 Apr 20 17:57 | 2026 Apr 18 15:56:29 | 65.7930 | 0.01058 | 5.8082 | 240.7664 | 123.8765 | 13.84103 | – |
| 2026 Apr 19 17:58 | 2026 Apr 18 15:56:29 | 65.7930 | 0.01058 | 5.8082 | 240.7664 | 123.8765 | 13.84103 | – |
| 2026 Apr 18 17:56 | 2026 Apr 12 17:44:22 | 65.7921 | 0.01063 | 6.8009 | 243.4036 | 123.8765 | 13.84103 | – |
| 2026 Apr 16 17:57 | 2026 Apr 12 17:44:22 | 65.7921 | 0.01063 | 6.8009 | 243.4036 | 123.8765 | 13.84103 | – |
| 2026 Apr 14 17:57 | 2026 Apr 12 17:44:22 | 65.7921 | 0.01063 | 6.8009 | 243.4036 | 123.8765 | 13.84103 | – |
| 2026 Apr 13 17:57 | 2026 Apr 12 17:44:22 | 65.7921 | 0.01063 | 6.8009 | 243.4036 | 123.8765 | 13.84103 | – |
| 2026 Apr 12 17:57 | 2026 Apr 07 18:04:51 | 65.7920 | 0.01066 | 7.6363 | 245.5741 | 123.8765 | 13.84103 | – |
| 2026 Apr 11 17:57 | 2026 Apr 07 18:04:51 | 65.7920 | 0.01066 | 7.6363 | 245.5741 | 123.8765 | 13.84103 | – |
| 2026 Apr 10 17:58 | 2026 Apr 07 18:04:51 | 65.7920 | 0.01066 | 7.6363 | 245.5741 | 123.8765 | 13.84103 | – |
| 2026 Apr 09 18:01 | 2026 Apr 07 18:04:51 | 65.7920 | 0.01066 | 7.6363 | 245.5741 | 123.8765 | 13.84103 | – |
| 2026 Apr 08 17:57 | 2026 Apr 07 18:04:51 | 65.7920 | 0.01066 | 7.6363 | 245.5741 | 123.8765 | 13.84103 | – |
| 2026 Apr 07 17:57 | 2026 Apr 01 19:52:37 | 65.7924 | 0.01067 | 8.6291 | 248.1043 | 123.8765 | 13.84103 | – |
| 2026 Apr 06 17:57 | 2026 Apr 01 19:52:37 | 65.7924 | 0.01067 | 8.6291 | 248.1043 | 123.8765 | 13.84103 | – |